createdAt,value
2018-12-06T00:01:17.876Z,81.36
2018-12-06T00:03:45.795Z,81.23
2018-12-06T00:06:13.446Z,80.70
2018-12-06T00:08:40.974Z,80.47
2018-12-06T00:11:08.494Z,81.06
2018-12-06T00:13:35.895Z,81.25
2018-12-06T00:16:03.463Z,81.04
2018-12-06T00:18:31.099Z,81.41
2018-12-06T00:20:58.743Z,81.76
2018-12-06T00:23:26.416Z,82.12
2018-12-06T00:25:54.009Z,82.60
2018-12-06T00:28:21.608Z,83.12
2018-12-06T00:30:49.273Z,83.16
2018-12-06T00:33:17.326Z,82.97
2018-12-06T00:35:44.652Z,82.94
2018-12-06T00:38:12.253Z,82.88
2018-12-06T00:40:40.243Z,82.19
2018-12-06T00:43:07.914Z,82.18
2018-12-06T00:45:35.600Z,82.42
2018-12-06T00:48:03.333Z,82.83
2018-12-06T00:50:30.674Z,83.49
2018-12-06T00:52:58.152Z,84.13
2018-12-06T00:55:25.673Z,84.65
2018-12-06T00:57:53.336Z,85.11
2018-12-06T01:00:20.957Z,85.53
2018-12-06T01:02:48.586Z,85.53
2018-12-06T01:05:16.401Z,85.69
2018-12-06T01:07:44.095Z,86.04
2018-12-06T01:10:11.924Z,86.06
2018-12-06T01:12:39.591Z,86.18
2018-12-06T01:15:25.631Z,86.20
2018-12-06T01:17:53.504Z,86.41
2018-12-06T01:20:21.252Z,86.36
2018-12-06T01:22:48.977Z,86.34
2018-12-06T01:25:16.452Z,86.52
2018-12-06T01:27:44.214Z,86.37
2018-12-06T01:30:12.039Z,86.78
2018-12-06T01:32:39.728Z,86.79
2018-12-06T01:35:07.315Z,87.28
2018-12-06T01:37:35.936Z,87.14
2018-12-06T01:40:03.861Z,87.34
2018-12-06T01:42:31.212Z,87.58
2018-12-06T01:44:59.149Z,87.74
2018-12-06T01:47:26.578Z,88.03
2018-12-06T01:49:54.432Z,88.25
2018-12-06T01:52:22.056Z,87.97
2018-12-06T01:54:49.860Z,88.34
2018-12-06T01:57:17.580Z,88.53
2018-12-06T01:59:45.220Z,88.87
2018-12-06T02:02:12.943Z,88.83
2018-12-06T02:04:40.586Z,88.83
2018-12-06T02:07:08.267Z,88.88
2018-12-06T02:09:35.962Z,88.72
2018-12-06T02:12:03.660Z,88.43
2018-12-06T02:14:31.384Z,88.58
2018-12-06T02:16:59.046Z,88.37
2018-12-06T02:19:27.386Z,88.11
2018-12-06T02:21:54.952Z,88.02
2018-12-06T02:24:22.402Z,87.90
2018-12-06T02:26:50.062Z,88.03
2018-12-06T02:29:17.446Z,87.79
2018-12-06T02:31:45.076Z,87.93
2018-12-06T02:34:12.793Z,87.78
2018-12-06T02:36:40.400Z,87.47
2018-12-06T02:39:08.324Z,86.69
2018-12-06T02:41:35.696Z,86.46
2018-12-06T02:44:03.521Z,86.43
2018-12-06T02:46:31.028Z,86.65
2018-12-06T02:48:58.682Z,86.94
2018-12-06T02:51:26.555Z,87.04
2018-12-06T02:53:54.256Z,87.30
2018-12-06T02:56:21.724Z,87.35
2018-12-06T02:58:49.326Z,87.18
2018-12-06T03:01:16.956Z,87.02
2018-12-06T03:03:44.529Z,86.83
2018-12-06T03:06:12.186Z,86.87
2018-12-06T03:08:39.910Z,87.18
2018-12-06T03:11:07.238Z,87.15
2018-12-06T03:13:34.917Z,87.24
2018-12-06T03:16:02.266Z,87.19
2018-12-06T03:18:29.850Z,86.74
2018-12-06T03:20:57.344Z,86.31
2018-12-06T03:23:24.912Z,86.26
2018-12-06T03:25:52.614Z,86.35
2018-12-06T03:28:20.250Z,86.40
2018-12-06T03:30:48.122Z,86.50
2018-12-06T03:33:15.842Z,86.45
2018-12-06T03:35:43.427Z,86.55
2018-12-06T03:38:11.017Z,86.67
2018-12-06T03:40:38.494Z,86.74
2018-12-06T03:43:06.091Z,86.85
2018-12-06T03:45:33.657Z,86.82
2018-12-06T03:48:01.381Z,86.96
2018-12-06T03:50:29.079Z,87.00
2018-12-06T03:52:56.461Z,86.60
2018-12-06T03:55:24.067Z,86.91
2018-12-06T03:57:51.596Z,86.87
2018-12-06T04:00:19.066Z,86.74
2018-12-06T04:02:46.639Z,86.74
2018-12-06T04:05:14.454Z,86.92
2018-12-06T04:07:42.049Z,86.81
2018-12-06T04:10:09.610Z,86.78
2018-12-06T04:12:37.413Z,86.90
2018-12-06T04:15:05.513Z,87.34
2018-12-06T04:17:33.175Z,87.01
2018-12-06T04:20:00.920Z,87.13
2018-12-06T04:22:28.589Z,87.11
2018-12-06T04:24:56.171Z,87.00
2018-12-06T04:27:23.793Z,87.15
2018-12-06T04:29:51.469Z,86.98
2018-12-06T04:32:19.050Z,86.78
2018-12-06T04:34:46.488Z,86.45
2018-12-06T04:37:14.353Z,86.57
2018-12-06T04:39:41.682Z,86.56
2018-12-06T04:42:09.281Z,86.50
2018-12-06T04:44:36.805Z,86.33
2018-12-06T04:47:04.477Z,86.48
2018-12-06T04:49:32.261Z,86.60
2018-12-06T04:51:59.977Z,86.72
2018-12-06T04:54:27.604Z,86.79
2018-12-06T04:56:55.317Z,86.61
2018-12-06T04:59:23.062Z,86.31
2018-12-06T05:01:50.768Z,86.28
2018-12-06T05:04:18.620Z,86.32
2018-12-06T05:06:46.237Z,86.53
2018-12-06T05:09:13.725Z,86.30
2018-12-06T05:11:41.369Z,86.35
2018-12-06T05:14:09.148Z,86.40
2018-12-06T05:16:36.559Z,86.06
2018-12-06T05:19:04.181Z,85.97
2018-12-06T05:21:31.521Z,86.01
2018-12-06T05:23:59.329Z,86.09
2018-12-06T05:26:26.725Z,86.22
2018-12-06T05:28:54.404Z,86.20
2018-12-06T05:31:21.910Z,86.36
2018-12-06T05:33:49.988Z,86.24
2018-12-06T05:36:17.894Z,86.43
2018-12-06T05:38:45.560Z,86.71
2018-12-06T05:41:13.307Z,86.37
2018-12-06T05:43:40.782Z,86.36
2018-12-06T05:46:08.403Z,86.42
2018-12-06T05:48:35.912Z,86.14
2018-12-06T05:51:03.628Z,86.22
2018-12-06T05:53:31.152Z,86.55
2018-12-06T05:55:58.901Z,86.32
2018-12-06T05:58:26.477Z,86.10
2018-12-06T06:00:54.117Z,86.14
2018-12-06T06:03:21.544Z,86.02
2018-12-06T06:05:48.956Z,86.12
2018-12-06T06:08:16.392Z,86.17
2018-12-06T06:10:44.012Z,86.12
2018-12-06T06:13:11.531Z,86.15
2018-12-06T06:15:39.200Z,86.05
2018-12-06T06:18:06.736Z,86.19
2018-12-06T06:20:34.228Z,86.14
2018-12-06T06:23:01.769Z,86.12
2018-12-06T06:25:29.491Z,86.29
2018-12-06T06:27:57.230Z,86.35
2018-12-06T06:30:24.745Z,86.64
2018-12-06T06:32:52.374Z,86.67
2018-12-06T06:35:19.999Z,86.72
2018-12-06T06:37:47.678Z,86.63
2018-12-06T06:40:15.301Z,86.72
2018-12-06T06:42:42.960Z,86.65
2018-12-06T06:45:10.399Z,86.65
2018-12-06T06:47:38.016Z,86.63
2018-12-06T06:50:05.800Z,86.51
2018-12-06T06:52:33.456Z,86.62
2018-12-06T06:55:01.046Z,86.03
2018-12-06T06:57:28.642Z,85.81
2018-12-06T06:59:56.215Z,85.57
2018-12-06T07:02:23.960Z,85.86
2018-12-06T07:04:51.536Z,85.94
2018-12-06T07:07:19.178Z,86.10
2018-12-06T07:09:46.806Z,86.18
2018-12-06T07:12:14.545Z,86.28
2018-12-06T07:14:42.126Z,86.29
2018-12-06T07:17:09.825Z,86.14
2018-12-06T07:19:37.414Z,86.07
2018-12-06T07:22:05.035Z,85.81
2018-12-06T07:24:32.620Z,85.70
2018-12-06T07:27:00.037Z,85.99
2018-12-06T07:29:27.602Z,86.10
2018-12-06T07:31:54.993Z,85.67
2018-12-06T07:34:22.528Z,84.53
2018-12-06T07:36:50.504Z,84.89
2018-12-06T07:39:18.254Z,85.13
2018-12-06T07:41:52.677Z,85.36
2018-12-06T07:44:20.691Z,85.97
2018-12-06T07:46:48.159Z,86.20
2018-12-06T07:49:15.756Z,86.61
2018-12-06T07:51:43.369Z,86.50
2018-12-06T07:54:11.155Z,86.74
2018-12-06T07:56:39.059Z,87.22
2018-12-06T07:59:06.763Z,87.36
2018-12-06T08:01:34.545Z,87.59
2018-12-06T08:04:02.148Z,87.44
2018-12-06T08:06:29.869Z,87.13
2018-12-06T08:08:57.519Z,87.38
2018-12-06T08:11:25.083Z,87.08
2018-12-06T08:13:52.607Z,86.69
2018-12-06T08:16:20.195Z,86.59
2018-12-06T08:18:47.559Z,86.76
2018-12-06T08:21:15.301Z,86.49
2018-12-06T08:23:43.040Z,86.11
2018-12-06T08:26:10.692Z,86.23
2018-12-06T08:28:38.347Z,85.74
2018-12-06T08:31:05.919Z,85.53
2018-12-06T08:33:33.415Z,85.59
2018-12-06T08:36:00.933Z,85.73
2018-12-06T08:38:28.766Z,85.74
2018-12-06T08:40:56.357Z,85.53
2018-12-06T08:43:24.313Z,85.52
2018-12-06T08:45:51.896Z,85.82
2018-12-06T08:48:20.133Z,85.47
2018-12-06T08:50:47.544Z,85.40
2018-12-06T08:53:43.884Z,84.76
2018-12-06T08:56:11.635Z,84.83
2018-12-06T08:58:39.245Z,84.29
2018-12-06T09:01:08.508Z,84.41
2018-12-06T09:03:36.735Z,84.57
2018-12-06T09:06:04.304Z,84.67
2018-12-06T09:08:31.876Z,84.50
2018-12-06T09:10:59.300Z,84.30
2018-12-06T09:13:26.937Z,83.84
2018-12-06T09:15:54.664Z,83.18
2018-12-06T09:18:22.302Z,82.94
2018-12-06T09:20:49.664Z,82.82
2018-12-06T09:23:17.409Z,82.76
2018-12-06T09:25:46.353Z,82.76
2018-12-06T09:28:14.331Z,83.01
2018-12-06T09:30:41.915Z,82.64
2018-12-06T09:33:09.477Z,82.80
2018-12-06T09:35:37.056Z,82.54
2018-12-06T09:38:04.589Z,82.30
2018-12-06T09:40:32.348Z,82.57
2018-12-06T09:42:59.977Z,82.35
2018-12-06T09:45:28.477Z,82.07
2018-12-06T09:47:56.392Z,81.95
2018-12-06T09:50:24.036Z,82.20
2018-12-06T09:52:51.391Z,81.95
2018-12-06T09:55:19.114Z,81.91
2018-12-06T09:57:46.573Z,82.00
2018-12-06T10:00:16.151Z,82.16
2018-12-06T10:02:43.723Z,82.16
2018-12-06T10:05:11.665Z,82.01
2018-12-06T10:07:39.431Z,82.41
2018-12-06T10:10:07.307Z,82.65
2018-12-06T10:12:34.897Z,82.69
2018-12-06T10:15:03.022Z,82.77
2018-12-06T10:17:30.728Z,83.12
2018-12-06T10:19:58.244Z,83.24
2018-12-06T10:22:25.944Z,83.28
2018-12-06T10:24:53.880Z,83.43
2018-12-06T10:27:21.542Z,83.40
2018-12-06T10:29:49.104Z,83.38
2018-12-06T10:32:16.756Z,83.06
2018-12-06T10:34:45.428Z,83.27
2018-12-06T10:37:13.636Z,82.58
2018-12-06T10:39:41.032Z,82.62
2018-12-06T10:42:08.994Z,82.66
2018-12-06T10:44:36.540Z,82.56
2018-12-06T10:47:05.180Z,82.60
2018-12-06T10:49:32.859Z,82.38
2018-12-06T10:52:00.540Z,82.31
2018-12-06T10:54:28.132Z,82.28
2018-12-06T10:56:55.966Z,82.05
2018-12-06T10:59:23.576Z,81.38
2018-12-06T11:01:57.075Z,80.62
2018-12-06T11:04:29.164Z,80.10
2018-12-06T11:06:57.068Z,79.53
2018-12-06T11:09:24.801Z,78.55
2018-12-06T11:11:52.404Z,77.87
2018-12-06T11:14:20.016Z,77.78
2018-12-06T11:16:47.643Z,76.96
2018-12-06T11:19:15.326Z,77.26
2018-12-06T11:21:42.808Z,77.86
2018-12-06T11:24:10.496Z,77.77
2018-12-06T11:26:38.015Z,76.64
2018-12-06T11:29:05.813Z,76.48
2018-12-06T11:31:33.505Z,77.14
2018-12-06T11:34:01.051Z,77.66
2018-12-06T11:36:28.680Z,78.34
2018-12-06T11:38:56.325Z,78.32
2018-12-06T11:41:24.049Z,78.45
2018-12-06T11:43:51.738Z,78.41
2018-12-06T11:46:19.467Z,78.53
2018-12-06T11:48:47.040Z,78.64
2018-12-06T11:51:14.576Z,78.78
2018-12-06T11:53:42.189Z,79.46
2018-12-06T11:56:09.816Z,79.26
2018-12-06T11:58:37.403Z,79.79
2018-12-06T12:01:05.144Z,79.76
2018-12-06T12:03:32.524Z,80.07
2018-12-06T12:05:59.938Z,79.98
2018-12-06T12:08:27.310Z,79.64
2018-12-06T12:10:55.013Z,79.34
2018-12-06T12:13:22.401Z,79.30
2018-12-06T12:15:49.985Z,79.30
2018-12-06T12:18:17.686Z,78.48
2018-12-06T12:20:45.081Z,78.81
2018-12-06T12:23:12.825Z,78.18
2018-12-06T12:25:40.431Z,77.96
2018-12-06T12:28:08.249Z,77.94
2018-12-06T12:30:35.905Z,78.02
2018-12-06T12:33:03.587Z,77.61
2018-12-06T12:35:30.975Z,77.28
2018-12-06T12:37:58.473Z,77.10
2018-12-06T12:40:26.037Z,77.10
2018-12-06T12:42:53.703Z,77.66
2018-12-06T12:45:21.381Z,77.20
2018-12-06T12:47:48.960Z,77.68
2018-12-06T12:50:16.393Z,77.99
2018-12-06T12:52:44.032Z,78.43
2018-12-06T12:55:11.388Z,78.49
2018-12-06T12:57:39.031Z,79.16
2018-12-06T13:00:07.171Z,79.07
2018-12-06T13:02:34.873Z,79.10
2018-12-06T13:05:02.797Z,79.15
2018-12-06T13:07:30.657Z,79.27
2018-12-06T13:09:58.281Z,79.32
2018-12-06T13:12:25.937Z,79.21
2018-12-06T13:14:53.547Z,79.57
2018-12-06T13:17:21.257Z,79.86
2018-12-06T13:19:49.017Z,80.25
2018-12-06T13:22:16.677Z,80.25
2018-12-06T13:24:44.329Z,80.23
2018-12-06T13:27:12.053Z,80.54
2018-12-06T13:29:39.639Z,80.89
2018-12-06T13:32:07.186Z,81.20
2018-12-06T13:34:34.860Z,81.44
2018-12-06T13:37:02.285Z,81.24
2018-12-06T13:39:29.865Z,81.54
2018-12-06T13:41:57.589Z,81.92
2018-12-06T13:44:25.391Z,82.34
2018-12-06T13:46:52.989Z,82.17
2018-12-06T13:49:20.759Z,82.37
2018-12-06T13:51:48.385Z,82.68
2018-12-06T13:54:16.093Z,82.72
2018-12-06T13:56:44.047Z,82.67
2018-12-06T13:59:11.644Z,82.19
2018-12-06T14:01:39.221Z,82.61
2018-12-06T14:04:07.138Z,82.53
2018-12-06T14:06:34.743Z,82.88
2018-12-06T14:09:03.101Z,82.54
2018-12-06T14:11:31.210Z,82.62
2018-12-06T14:13:58.664Z,82.73
2018-12-06T14:16:26.271Z,83.00
2018-12-06T14:18:53.710Z,83.04
2018-12-06T14:21:21.206Z,83.23
2018-12-06T14:23:48.673Z,83.06
2018-12-06T14:26:16.335Z,83.08
2018-12-06T14:28:43.971Z,83.39
2018-12-06T14:31:11.644Z,83.23
2018-12-06T14:33:39.632Z,83.35
2018-12-06T14:36:07.257Z,83.67
2018-12-06T14:38:34.895Z,83.88
2018-12-06T14:41:02.553Z,83.63
2018-12-06T14:43:30.360Z,83.58
2018-12-06T14:45:58.322Z,83.72
2018-12-06T14:48:26.347Z,84.27
2018-12-06T14:50:53.847Z,83.76
2018-12-06T14:53:21.528Z,84.02
2018-12-06T14:55:49.119Z,84.50
2018-12-06T14:58:16.716Z,84.17
2018-12-06T15:00:44.082Z,84.50
2018-12-06T15:03:11.628Z,84.67
2018-12-06T15:05:39.081Z,84.69
2018-12-06T15:08:06.716Z,84.61
2018-12-06T15:10:34.221Z,84.41
2018-12-06T15:13:01.842Z,84.50
2018-12-06T15:15:29.534Z,84.83
2018-12-06T15:17:57.309Z,84.93
2018-12-06T15:20:25.038Z,85.51
2018-12-06T15:22:52.725Z,85.22
2018-12-06T15:25:20.616Z,85.01
2018-12-06T15:27:48.681Z,85.05
2018-12-06T15:30:16.240Z,84.98
2018-12-06T15:32:44.062Z,84.85
2018-12-06T15:35:11.930Z,85.01
2018-12-06T15:37:39.495Z,84.77
2018-12-06T15:40:07.688Z,85.13
2018-12-06T15:42:35.183Z,85.21
2018-12-06T15:45:02.967Z,85.40
2018-12-06T15:47:30.715Z,85.14
2018-12-06T15:49:58.412Z,85.05
2018-12-06T15:52:25.911Z,85.29
2018-12-06T15:54:53.662Z,85.22
2018-12-06T15:57:21.171Z,85.47
2018-12-06T15:59:48.780Z,85.68
2018-12-06T16:02:31.633Z,86.07
2018-12-06T16:04:59.262Z,86.51
2018-12-06T16:07:26.842Z,87.50
2018-12-06T16:09:54.705Z,87.50
2018-12-06T16:12:22.517Z,88.00
2018-12-06T16:14:50.365Z,88.47
2018-12-06T16:17:17.889Z,88.94
2018-12-06T16:19:45.720Z,89.14
2018-12-06T16:22:13.535Z,89.27
2018-12-06T16:24:41.346Z,89.38
2018-12-06T16:27:09.001Z,89.44
2018-12-06T16:29:36.629Z,89.59
2018-12-06T16:32:04.368Z,89.59
2018-12-06T16:34:31.873Z,89.48
2018-12-06T16:36:59.467Z,89.73
2018-12-06T16:39:26.874Z,89.87
2018-12-06T16:41:54.765Z,89.64
2018-12-06T16:44:22.548Z,89.66
2018-12-06T16:46:50.251Z,89.53
2018-12-06T16:49:17.999Z,89.33
2018-12-06T16:51:45.586Z,89.11
2018-12-06T16:54:13.307Z,88.86
2018-12-06T16:56:43.688Z,88.84
2018-12-06T16:59:11.442Z,88.67
2018-12-06T17:01:39.074Z,88.60
2018-12-06T17:04:06.885Z,88.48
2018-12-06T17:06:34.758Z,88.11
2018-12-06T17:09:04.738Z,88.25
2018-12-06T17:11:32.564Z,87.50
2018-12-06T17:14:01.581Z,87.49
2018-12-06T17:16:29.088Z,87.82
2018-12-06T17:18:56.841Z,87.71
2018-12-06T17:21:24.348Z,87.25
2018-12-06T17:23:52.412Z,87.26
2018-12-06T17:26:20.039Z,86.79
2018-12-06T17:28:47.799Z,86.52
2018-12-06T17:31:15.624Z,86.25
2018-12-06T17:33:43.385Z,86.58
2018-12-06T17:36:11.232Z,86.58
2018-12-06T17:38:39.029Z,86.57
2018-12-06T17:41:06.379Z,86.52
2018-12-06T17:43:33.979Z,86.43
2018-12-06T17:46:01.736Z,85.79
2018-12-06T17:48:29.559Z,86.38
2018-12-06T17:50:57.190Z,86.35
2018-12-06T17:53:25.067Z,86.48
2018-12-06T17:55:54.503Z,86.34
2018-12-06T17:58:22.181Z,86.49
2018-12-06T18:00:50.153Z,86.27
2018-12-06T18:03:17.641Z,86.51
2018-12-06T18:05:45.242Z,86.89
2018-12-06T18:08:12.746Z,87.43
2018-12-06T18:10:40.719Z,87.50
2018-12-06T18:13:08.342Z,87.74
2018-12-06T18:15:36.468Z,87.94
2018-12-06T18:18:04.132Z,87.82
2018-12-06T18:20:31.576Z,87.91
2018-12-06T18:22:59.456Z,88.01
2018-12-06T18:25:27.125Z,87.28
2018-12-06T18:27:55.007Z,87.55
2018-12-06T18:30:22.768Z,87.10
2018-12-06T18:32:50.409Z,86.71
2018-12-06T18:35:18.372Z,85.63
2018-12-06T18:37:46.224Z,85.45
2018-12-06T18:40:13.920Z,85.76
2018-12-06T18:42:41.583Z,85.90
2018-12-06T18:45:09.122Z,85.37
2018-12-06T18:47:36.969Z,84.87
2018-12-06T18:50:04.745Z,84.77
2018-12-06T18:52:32.529Z,84.81
2018-12-06T18:55:00.139Z,84.55
2018-12-06T18:57:27.882Z,84.65
2018-12-06T18:59:55.562Z,84.92
2018-12-06T19:02:23.109Z,85.24
2018-12-06T19:04:50.842Z,85.68
2018-12-06T19:07:18.731Z,86.02
2018-12-06T19:09:46.258Z,85.84
2018-12-06T19:12:13.908Z,84.96
2018-12-06T19:14:41.748Z,84.69
2018-12-06T19:17:09.366Z,84.42
2018-12-06T19:19:36.978Z,84.27
2018-12-06T19:22:04.818Z,84.52
2018-12-06T19:24:32.784Z,84.93
2018-12-06T19:27:00.576Z,85.17
2018-12-06T19:29:28.272Z,85.24
2018-12-06T19:31:56.455Z,85.55
2018-12-06T19:34:24.253Z,85.62
2018-12-06T19:36:53.055Z,85.38
2018-12-06T19:39:21.436Z,85.38
2018-12-06T19:41:49.340Z,85.43
2018-12-06T19:44:17.008Z,85.33
2018-12-06T19:46:45.143Z,85.54
2018-12-06T19:49:12.992Z,85.79
2018-12-06T19:51:41.039Z,85.58
2018-12-06T19:54:08.724Z,85.29
2018-12-06T19:56:37.296Z,85.05
2018-12-06T19:59:06.824Z,85.28
2018-12-06T20:01:36.389Z,85.14
2018-12-06T20:04:04.102Z,85.01
2018-12-06T20:06:31.934Z,85.29
2018-12-06T20:08:59.519Z,85.10
2018-12-06T20:11:27.280Z,85.12
2018-12-06T20:13:55.256Z,84.79
2018-12-06T20:16:22.934Z,84.30
2018-12-06T20:18:50.636Z,84.45
2018-12-06T20:21:18.355Z,84.44
2018-12-06T20:23:45.788Z,84.70
2018-12-06T20:26:14.440Z,84.62
2018-12-06T20:28:42.104Z,84.81
2018-12-06T20:31:09.799Z,84.48
2018-12-06T20:33:37.385Z,84.30
2018-12-06T20:36:04.943Z,84.03
2018-12-06T20:38:32.654Z,83.48
2018-12-06T20:41:00.383Z,83.06
2018-12-06T20:43:28.201Z,83.34
2018-12-06T20:45:55.981Z,83.03
2018-12-06T20:48:23.590Z,82.97
2018-12-06T20:50:51.194Z,82.32
2018-12-06T20:53:18.907Z,82.19
2018-12-06T20:55:46.680Z,82.50
2018-12-06T20:58:15.187Z,82.54
2018-12-06T21:00:43.033Z,82.53
2018-12-06T21:03:10.831Z,82.96
2018-12-06T21:05:38.281Z,83.04
2018-12-06T21:08:06.009Z,82.94
2018-12-06T21:10:33.823Z,83.26
2018-12-06T21:13:01.533Z,83.64
2018-12-06T21:15:29.197Z,83.98
2018-12-06T21:17:56.725Z,83.91
2018-12-06T21:20:24.416Z,83.83
2018-12-06T21:22:52.179Z,84.34
2018-12-06T21:25:19.807Z,83.82
2018-12-06T21:27:47.559Z,83.38
2018-12-06T21:30:15.135Z,84.06
2018-12-06T21:32:42.825Z,83.96
2018-12-06T21:35:10.512Z,83.95
2018-12-06T21:37:38.458Z,83.93
2018-12-06T21:40:06.532Z,83.95
2018-12-06T21:42:34.046Z,83.33
2018-12-06T21:45:01.587Z,82.82
2018-12-06T21:47:29.158Z,82.59
2018-12-06T21:49:56.796Z,82.91
2018-12-06T21:52:24.652Z,83.03
2018-12-06T21:54:52.190Z,83.09
2018-12-06T21:57:19.970Z,83.62
2018-12-06T21:59:47.770Z,83.87
2018-12-06T22:02:22.863Z,83.65
2018-12-06T22:04:50.634Z,83.83
2018-12-06T22:07:18.367Z,83.91
2018-12-06T22:09:46.179Z,83.98
2018-12-06T22:12:13.810Z,82.22
2018-12-06T22:14:41.385Z,82.59
2018-12-06T22:17:09.095Z,82.84
2018-12-06T22:19:36.811Z,82.92
2018-12-06T22:22:04.548Z,83.55
2018-12-06T22:24:32.183Z,83.49
2018-12-06T22:26:59.776Z,84.08
2018-12-06T22:29:27.228Z,83.48
2018-12-06T22:31:55.054Z,83.78
2018-12-06T22:34:22.436Z,83.39
2018-12-06T22:36:50.064Z,83.55
2018-12-06T22:39:17.564Z,83.63
2018-12-06T22:41:45.252Z,83.27
2018-12-06T22:44:12.960Z,82.81
2018-12-06T22:46:40.702Z,82.74
2018-12-06T22:49:08.428Z,82.88
2018-12-06T22:51:36.154Z,82.63
2018-12-06T22:54:04.336Z,82.38
2018-12-06T22:56:32.152Z,82.77
2018-12-06T22:59:00.365Z,82.96
2018-12-06T23:01:33.585Z,82.93
2018-12-06T23:04:01.425Z,83.03
2018-12-06T23:06:29.101Z,82.96
2018-12-06T23:08:56.561Z,83.32
2018-12-06T23:11:24.496Z,83.95
2018-12-06T23:13:54.215Z,84.11
2018-12-06T23:16:22.836Z,84.51
2018-12-06T23:18:52.201Z,83.83
2018-12-06T23:21:21.636Z,83.23
2018-12-06T23:23:51.094Z,83.37
2018-12-06T23:26:18.840Z,83.19
2018-12-06T23:28:46.531Z,83.30
2018-12-06T23:31:14.186Z,83.21
2018-12-06T23:33:41.760Z,83.42
2018-12-06T23:36:09.366Z,83.59
2018-12-06T23:38:36.956Z,83.67
2018-12-06T23:41:04.496Z,83.52
2018-12-06T23:43:32.162Z,83.53
2018-12-06T23:45:59.752Z,83.95
2018-12-06T23:48:27.363Z,84.55
2018-12-06T23:51:04.823Z,84.10
2018-12-06T23:53:32.438Z,84.24
2018-12-06T23:56:00.101Z,84.18
2018-12-06T23:58:27.848Z,84.38
